Aviation Digital Data Service (ADDS)

Output produced by TAFs form (2119 UTC 02 September 2014)
found at http://www.aviationweather.gov/adds/tafs/
 
KPSF 022013Z 0220/0318 26006KT P6SM SCT035 BKN060 
     TEMPO 0220/0221 1/2SM +TSRA FG BKN020CB 
     FM030000 24008KT P6SM VCSH BKN040 BKN200 
     FM030300 29007KT 3SM SHRA BR BKN015 OVC040 
     FM030700 28005KT 2SM BR SCT008 BKN015 
     FM031300 30009KT P6SM SCT015 SCT250